createdAt,value
2023-05-07T03:00:49.501Z,4.04
2023-05-07T03:03:41.860Z,4.07
2023-05-07T03:06:14.269Z,4.05
2023-05-07T03:08:42.513Z,4.02
2023-05-07T03:11:11.648Z,3.99
2023-05-07T03:13:40.789Z,3.94
2023-05-07T03:16:09.601Z,3.91
2023-05-07T03:18:38.521Z,3.95
2023-05-07T03:21:07.757Z,3.94
2023-05-07T03:23:36.836Z,3.86
2023-05-07T03:26:06.221Z,3.90
2023-05-07T03:28:35.104Z,3.99
2023-05-07T03:31:06.748Z,4.04
2023-05-07T03:33:36.326Z,4.16
2023-05-07T03:36:06.223Z,4.29
2023-05-07T03:38:35.180Z,4.32
2023-05-07T03:41:03.566Z,4.26
2023-05-07T03:43:33.512Z,4.17
2023-05-07T03:46:07.231Z,4.19
2023-05-07T03:48:35.523Z,4.22
2023-05-07T03:51:04.813Z,4.25
2023-05-07T03:53:35.125Z,4.36
2023-05-07T03:56:03.497Z,4.50
2023-05-07T03:58:35.104Z,4.57
2023-05-07T04:01:08.797Z,4.57
2023-05-07T04:03:37.402Z,4.61
2023-05-07T04:06:07.057Z,4.65
2023-05-07T04:08:36.891Z,4.76
2023-05-07T04:11:06.407Z,4.98
2023-05-07T04:13:35.457Z,5.46
2023-05-07T04:16:06.585Z,5.78
2023-05-07T04:18:36.786Z,6.26
2023-05-07T04:21:06.637Z,7.27
2023-05-07T04:23:35.822Z,8.01
2023-05-07T04:26:05.442Z,8.37
2023-05-07T04:28:42.835Z,8.53
2023-05-07T04:31:11.443Z,9.16
2023-05-07T04:33:41.031Z,9.96
2023-05-07T04:36:12.092Z,10.61
2023-05-07T04:38:47.229Z,11.48
2023-05-07T04:41:16.424Z,12.08
2023-05-07T04:43:45.144Z,12.79
2023-05-07T04:46:15.313Z,13.41
2023-05-07T04:48:44.593Z,13.89
2023-05-07T04:51:13.465Z,14.06
2023-05-07T04:53:42.243Z,14.36
2023-05-07T04:56:10.902Z,14.83
2023-05-07T04:58:44.829Z,15.27
2023-05-07T05:01:13.852Z,15.44
2023-05-07T05:03:42.905Z,15.77
2023-05-07T05:06:11.956Z,15.81
2023-05-07T05:08:41.141Z,15.89
2023-05-07T05:11:11.549Z,16.01
2023-05-07T05:13:40.252Z,16.07
2023-05-07T05:16:15.142Z,15.99
2023-05-07T05:18:43.581Z,16.03
2023-05-07T05:21:13.016Z,15.92
2023-05-07T05:23:42.327Z,16.07
2023-05-07T05:26:11.235Z,16.54
2023-05-07T05:28:40.566Z,16.75
2023-05-07T05:31:09.551Z,16.92
2023-05-07T05:33:38.249Z,17.12
2023-05-07T05:36:07.902Z,17.47
2023-05-07T05:38:37.132Z,18.03
2023-05-07T05:41:05.998Z,18.59
2023-05-07T05:43:35.096Z,19.05
2023-05-07T05:46:05.659Z,19.61
2023-05-07T05:48:34.533Z,20.11
2023-05-07T05:51:03.576Z,20.49
2023-05-07T05:53:32.014Z,20.91
2023-05-07T05:56:01.696Z,21.29
2023-05-07T05:58:31.561Z,21.76
2023-05-07T06:01:04.855Z,22.01
2023-05-07T06:03:33.857Z,22.18
2023-05-07T06:06:05.148Z,21.86
2023-05-07T06:08:34.301Z,21.20
2023-05-07T06:11:04.559Z,20.58
2023-05-07T06:13:35.313Z,19.71
2023-05-07T06:16:03.631Z,18.94
2023-05-07T06:18:32.504Z,18.28
2023-05-07T06:21:01.448Z,17.61
2023-05-07T06:23:33.682Z,17.04
2023-05-07T06:26:03.402Z,16.55
2023-05-07T06:28:37.240Z,16.04
2023-05-07T06:31:15.374Z,15.56
2023-05-07T06:33:47.121Z,15.16
2023-05-07T06:36:18.071Z,14.87
2023-05-07T06:38:47.434Z,14.62
2023-05-07T06:41:17.373Z,14.41
2023-05-07T06:43:46.704Z,14.25
2023-05-07T06:46:33.327Z,14.11
2023-05-07T06:49:02.253Z,14.07
2023-05-07T06:51:32.286Z,14.02
2023-05-07T06:54:06.200Z,13.90
2023-05-07T06:56:35.834Z,13.74
2023-05-07T06:59:05.379Z,13.69
2023-05-07T07:01:39.063Z,13.74
2023-05-07T07:04:08.867Z,13.78
2023-05-07T07:06:39.432Z,13.77
2023-05-07T07:09:12.149Z,13.77
2023-05-07T07:11:41.372Z,13.67
2023-05-07T07:14:10.756Z,13.51
2023-05-07T07:16:43.861Z,13.42
2023-05-07T07:19:13.433Z,13.38
2023-05-07T07:21:43.364Z,13.30
2023-05-07T07:24:15.165Z,13.36
2023-05-07T07:26:44.653Z,13.42
2023-05-07T07:29:13.929Z,13.46
2023-05-07T07:31:44.504Z,13.51
2023-05-07T07:34:14.039Z,13.56
2023-05-07T07:36:46.748Z,13.47
2023-05-07T07:39:20.415Z,13.44
2023-05-07T07:41:52.370Z,13.48
2023-05-07T07:44:22.746Z,13.51
2023-05-07T07:46:56.553Z,13.48
2023-05-07T07:49:27.247Z,13.54
2023-05-07T07:51:58.395Z,13.52
2023-05-07T07:54:28.497Z,13.57
2023-05-07T07:56:58.367Z,13.62
2023-05-07T07:59:27.503Z,13.60
2023-05-07T08:01:58.442Z,13.62
2023-05-07T08:04:28.747Z,13.67
2023-05-07T08:06:59.373Z,13.69
2023-05-07T08:09:28.348Z,13.69
2023-05-07T08:12:00.681Z,13.72
2023-05-07T08:14:30.115Z,13.81
2023-05-07T08:16:59.264Z,13.89
2023-05-07T08:19:27.939Z,13.91
2023-05-07T08:21:57.252Z,13.97
2023-05-07T08:24:26.903Z,14.01
2023-05-07T08:26:56.361Z,14.07
2023-05-07T08:29:24.774Z,14.16
2023-05-07T08:31:53.427Z,14.26
2023-05-07T08:34:22.742Z,14.28
2023-05-07T08:36:52.468Z,14.41
2023-05-07T08:39:22.488Z,14.53
2023-05-07T08:41:56.641Z,14.66
2023-05-07T08:44:29.014Z,14.69
2023-05-07T08:46:58.062Z,14.78
2023-05-07T08:49:27.763Z,14.83
2023-05-07T08:51:57.008Z,14.72
2023-05-07T08:54:26.297Z,14.63
2023-05-07T08:56:54.837Z,14.59
2023-05-07T08:59:23.350Z,14.58
2023-05-07T09:01:51.670Z,14.55
2023-05-07T09:04:20.637Z,14.50
2023-05-07T09:06:49.358Z,14.44
2023-05-07T09:09:20.049Z,14.33
2023-05-07T09:11:48.393Z,14.30
2023-05-07T09:14:17.954Z,14.28
2023-05-07T09:16:47.728Z,14.30
2023-05-07T09:19:16.176Z,14.33
2023-05-07T09:21:46.796Z,14.30
2023-05-07T09:24:16.702Z,14.30
2023-05-07T09:26:45.803Z,14.34
2023-05-07T09:29:17.044Z,14.43
2023-05-07T09:31:46.739Z,14.55
2023-05-07T09:34:17.385Z,14.67
2023-05-07T09:36:47.348Z,14.74
2023-05-07T09:39:16.211Z,14.72
2023-05-07T09:41:50.550Z,14.76
2023-05-07T09:44:25.644Z,14.78
2023-05-07T09:46:55.682Z,14.79
2023-05-07T09:49:31.908Z,14.82
2023-05-07T09:52:07.912Z,14.87
2023-05-07T09:54:39.153Z,14.91
2023-05-07T09:57:08.920Z,14.93
2023-05-07T09:59:39.017Z,15.00
2023-05-07T10:02:11.496Z,15.06
2023-05-07T10:04:47.789Z,15.13
2023-05-07T10:07:18.006Z,15.16
2023-05-07T10:09:49.065Z,15.22
2023-05-07T10:12:27.830Z,15.24
2023-05-07T10:14:57.870Z,15.21
2023-05-07T10:17:27.087Z,15.23
2023-05-07T10:19:56.158Z,15.27
2023-05-07T10:22:29.254Z,15.30
2023-05-07T10:25:01.304Z,15.34
2023-05-07T10:27:30.732Z,15.30
2023-05-07T10:30:09.334Z,15.24
2023-05-07T10:32:42.007Z,15.19
2023-05-07T10:35:28.510Z,15.14
2023-05-07T10:37:57.484Z,15.00
2023-05-07T10:40:27.209Z,14.91
2023-05-07T10:43:04.610Z,14.86
2023-05-07T10:45:37.144Z,14.85
2023-05-07T10:48:27.981Z,14.89
2023-05-07T10:51:21.360Z,14.92
2023-05-07T10:54:10.217Z,15.01
2023-05-07T10:56:39.542Z,15.16
2023-05-07T10:59:25.222Z,15.23
2023-05-07T11:01:56.494Z,15.26
2023-05-07T11:04:45.888Z,15.32
2023-05-07T11:07:26.345Z,15.41
2023-05-07T11:10:02.692Z,15.44
2023-05-07T11:13:04.008Z,15.35
2023-05-07T11:15:45.843Z,15.26
2023-05-07T11:18:26.077Z,15.24
2023-05-07T11:20:56.216Z,15.26
2023-05-07T11:23:57.900Z,15.32
2023-05-07T11:26:32.584Z,15.42
2023-05-07T11:29:01.974Z,15.44
2023-05-07T11:31:31.376Z,15.47
2023-05-07T11:34:03.239Z,15.54
2023-05-07T11:36:33.582Z,15.60
2023-05-07T11:39:03.365Z,15.65
2023-05-07T11:41:41.162Z,15.72
2023-05-07T11:44:10.459Z,15.77
2023-05-07T11:46:44.516Z,15.79
2023-05-07T11:49:13.598Z,15.83
2023-05-07T11:51:43.616Z,15.86
2023-05-07T11:54:15.762Z,15.90
2023-05-07T11:56:45.332Z,15.95
2023-05-07T11:59:13.710Z,15.97
2023-05-07T12:01:42.051Z,16.02
2023-05-07T12:04:11.536Z,16.08
2023-05-07T12:06:41.811Z,16.14
2023-05-07T12:09:13.422Z,16.21
2023-05-07T12:11:47.723Z,16.22
2023-05-07T12:14:19.442Z,16.19
2023-05-07T12:16:48.764Z,16.16
2023-05-07T12:19:17.953Z,16.16
2023-05-07T12:21:46.889Z,16.18
2023-05-07T12:24:21.955Z,16.12
2023-05-07T12:26:51.272Z,16.16
2023-05-07T12:29:22.563Z,16.20
2023-05-07T12:31:51.476Z,16.20
2023-05-07T12:34:20.692Z,16.15
2023-05-07T12:36:49.843Z,16.17
2023-05-07T12:39:18.659Z,16.16
2023-05-07T12:41:57.215Z,16.10
2023-05-07T12:44:26.424Z,16.07
2023-05-07T12:46:55.009Z,15.99
2023-05-07T12:49:25.260Z,15.95
2023-05-07T12:51:55.190Z,15.94
2023-05-07T12:54:34.597Z,15.95
2023-05-07T12:57:04.038Z,16.02
2023-05-07T12:59:36.745Z,16.01
2023-05-07T13:02:06.649Z,16.02
2023-05-07T13:04:36.180Z,16.03
2023-05-07T13:07:05.732Z,16.01
2023-05-07T13:09:35.054Z,16.04
2023-05-07T13:12:05.055Z,16.10
2023-05-07T13:14:35.172Z,16.17
2023-05-07T13:17:04.069Z,16.16
2023-05-07T13:19:34.108Z,16.13
2023-05-07T13:22:02.530Z,16.12
2023-05-07T13:24:31.169Z,16.11
2023-05-07T13:27:00.227Z,16.07
2023-05-07T13:29:32.523Z,16.01
2023-05-07T13:32:02.011Z,15.92
2023-05-07T13:34:30.574Z,15.84
2023-05-07T13:36:58.926Z,15.73
2023-05-07T13:39:27.556Z,15.62
2023-05-07T13:41:55.902Z,15.57
2023-05-07T13:44:24.485Z,15.57
2023-05-07T13:46:52.700Z,15.61
2023-05-07T13:49:22.690Z,15.67
2023-05-07T13:51:52.443Z,15.73
2023-05-07T13:54:21.145Z,15.81
2023-05-07T13:56:50.379Z,15.85
2023-05-07T13:59:19.732Z,15.91
2023-05-07T14:01:48.635Z,15.98
2023-05-07T14:04:17.557Z,15.98
2023-05-07T14:06:46.734Z,16.00
2023-05-07T14:09:15.373Z,16.03
2023-05-07T14:11:44.654Z,15.99
2023-05-07T14:14:13.593Z,15.94
2023-05-07T14:16:41.881Z,15.90
2023-05-07T14:19:11.174Z,15.88
2023-05-07T14:21:39.861Z,15.85
2023-05-07T14:24:10.235Z,15.83
2023-05-07T14:26:38.649Z,15.86
2023-05-07T14:29:07.592Z,15.88
2023-05-07T14:31:36.461Z,15.85
2023-05-07T14:34:05.575Z,15.82
2023-05-07T14:36:34.404Z,15.78
2023-05-07T14:39:03.070Z,15.70
2023-05-07T14:41:33.311Z,15.59
2023-05-07T14:44:02.260Z,15.50
2023-05-07T14:46:31.594Z,15.44
2023-05-07T14:48:59.926Z,15.44
2023-05-07T14:51:29.409Z,15.43
2023-05-07T14:53:57.810Z,15.48
2023-05-07T14:56:26.268Z,15.51
2023-05-07T14:58:54.992Z,15.55
2023-05-07T15:01:23.896Z,15.55
2023-05-07T15:03:53.186Z,15.51
2023-05-07T15:06:22.675Z,15.47
2023-05-07T15:08:50.904Z,15.44
2023-05-07T15:11:19.851Z,15.44
2023-05-07T15:13:48.157Z,15.48
2023-05-07T15:16:17.223Z,15.53
2023-05-07T15:18:46.113Z,15.53
2023-05-07T15:21:15.460Z,15.52
2023-05-07T15:23:45.616Z,15.56
2023-05-07T15:26:14.515Z,15.58
2023-05-07T15:28:45.494Z,15.59
2023-05-07T15:31:14.713Z,15.61
2023-05-07T15:33:43.861Z,15.57
2023-05-07T15:36:12.977Z,15.55
2023-05-07T15:38:41.853Z,15.56
2023-05-07T15:41:11.147Z,15.58
2023-05-07T15:43:51.776Z,15.52
2023-05-07T15:46:21.752Z,15.41
2023-05-07T15:48:50.865Z,15.37
2023-05-07T15:51:21.370Z,15.32
2023-05-07T15:53:50.954Z,15.23
2023-05-07T15:56:20.578Z,15.14
2023-05-07T15:58:50.211Z,15.11
2023-05-07T16:01:19.859Z,15.15
2023-05-07T16:03:49.071Z,15.14
2023-05-07T16:06:18.257Z,15.15
2023-05-07T16:08:47.510Z,15.15
2023-05-07T16:11:15.982Z,15.08
2023-05-07T16:13:44.169Z,15.04
2023-05-07T16:16:13.366Z,15.04
2023-05-07T16:18:41.590Z,15.03
2023-05-07T16:21:09.721Z,15.01
2023-05-07T16:23:38.133Z,14.96
2023-05-07T16:26:06.442Z,14.94
2023-05-07T16:28:34.992Z,14.93
2023-05-07T16:31:03.782Z,14.92
2023-05-07T16:33:31.895Z,14.91
2023-05-07T16:36:00.221Z,14.92
2023-05-07T16:38:31.226Z,14.89
2023-05-07T16:40:59.804Z,14.85
2023-05-07T16:43:28.220Z,14.78
2023-05-07T16:45:56.608Z,14.70
2023-05-07T16:48:25.787Z,14.69
2023-05-07T16:50:54.058Z,14.69
2023-05-07T16:53:22.052Z,14.71
2023-05-07T16:55:50.213Z,14.70
2023-05-07T16:58:18.349Z,14.65
2023-05-07T17:00:50.496Z,14.61
2023-05-07T17:03:19.716Z,14.57
2023-05-07T17:05:48.187Z,14.54
2023-05-07T17:08:16.359Z,14.44
2023-05-07T17:10:45.869Z,14.39
2023-05-07T17:13:14.280Z,14.35
2023-05-07T17:15:43.976Z,14.33
2023-05-07T17:18:12.244Z,14.30
2023-05-07T17:20:41.591Z,14.22
2023-05-07T17:23:13.991Z,14.10
2023-05-07T17:25:45.718Z,14.06
2023-05-07T17:28:14.099Z,14.06
2023-05-07T17:30:42.667Z,14.06
2023-05-07T17:33:21.006Z,14.04
2023-05-07T17:35:53.322Z,13.99
2023-05-07T17:38:21.538Z,13.97
2023-05-07T17:40:49.943Z,13.96
2023-05-07T17:43:18.416Z,13.93
2023-05-07T17:45:48.538Z,13.89
2023-05-07T17:48:17.732Z,13.86
2023-05-07T17:50:46.156Z,13.84
2023-05-07T17:53:14.361Z,13.80
2023-05-07T17:55:43.955Z,13.77
2023-05-07T17:58:12.365Z,13.73
2023-05-07T18:00:40.838Z,13.69
2023-05-07T18:03:09.211Z,13.65
2023-05-07T18:05:38.095Z,13.61
2023-05-07T18:08:06.992Z,13.56
2023-05-07T18:10:35.279Z,13.51
2023-05-07T18:13:04.234Z,13.46
2023-05-07T18:15:33.140Z,13.42
2023-05-07T18:18:01.504Z,13.36
2023-05-07T18:20:30.313Z,13.27
2023-05-07T18:22:58.984Z,13.19
2023-05-07T18:25:27.606Z,13.11
2023-05-07T18:27:56.288Z,13.03
2023-05-07T18:30:24.563Z,12.96
2023-05-07T18:32:52.774Z,12.92
2023-05-07T18:35:20.970Z,12.86
2023-05-07T18:37:49.159Z,12.75
2023-05-07T18:40:18.051Z,12.68
2023-05-07T18:42:46.330Z,12.62
2023-05-07T18:45:14.752Z,12.56
2023-05-07T18:47:44.177Z,12.49
2023-05-07T18:50:14.011Z,12.37
2023-05-07T18:52:42.480Z,12.23
2023-05-07T18:55:11.988Z,12.09
2023-05-07T18:57:42.180Z,11.94
2023-05-07T19:00:14.325Z,11.82
2023-05-07T19:02:45.464Z,11.75
2023-05-07T19:05:13.657Z,11.67
2023-05-07T19:07:41.950Z,11.58
2023-05-07T19:10:10.193Z,11.48
2023-05-07T19:12:38.337Z,11.42
2023-05-07T19:15:06.750Z,11.34
2023-05-07T19:17:35.893Z,11.25
2023-05-07T19:20:04.963Z,11.17
2023-05-07T19:22:33.166Z,11.10
2023-05-07T19:25:01.972Z,11.00
2023-05-07T19:27:35.338Z,10.87
2023-05-07T19:30:06.651Z,10.75
2023-05-07T19:32:35.004Z,10.68
2023-05-07T19:35:03.241Z,10.64
2023-05-07T19:37:31.505Z,10.64
2023-05-07T19:40:05.149Z,10.64
2023-05-07T19:42:33.413Z,10.63
2023-05-07T19:45:01.541Z,10.62
2023-05-07T19:47:29.735Z,10.62
2023-05-07T19:49:57.875Z,10.61
2023-05-07T19:52:26.533Z,10.56
2023-05-07T19:54:55.011Z,10.52
2023-05-07T19:57:23.251Z,10.36
2023-05-07T19:59:51.366Z,10.23
2023-05-07T20:02:19.717Z,10.17
2023-05-07T20:04:47.963Z,10.16
2023-05-07T20:07:16.131Z,10.14
2023-05-07T20:09:44.333Z,10.09
2023-05-07T20:12:12.502Z,10.01
2023-05-07T20:14:40.796Z,9.95
2023-05-07T20:17:09.012Z,9.82
2023-05-07T20:19:37.686Z,9.81
2023-05-07T20:22:06.052Z,9.83
2023-05-07T20:24:39.152Z,9.75
2023-05-07T20:27:08.044Z,9.63
2023-05-07T20:29:36.990Z,9.56
2023-05-07T20:32:05.428Z,9.52
2023-05-07T20:34:33.561Z,9.45
2023-05-07T20:37:03.189Z,9.37
2023-05-07T20:39:31.965Z,9.27
2023-05-07T20:42:00.126Z,9.09
2023-05-07T20:44:30.929Z,8.94
2023-05-07T20:46:59.598Z,8.93
2023-05-07T20:49:28.411Z,8.93
2023-05-07T20:51:57.607Z,8.87
2023-05-07T20:54:28.495Z,8.73
2023-05-07T20:56:58.173Z,8.64
2023-05-07T20:59:27.203Z,8.59
2023-05-07T21:01:56.969Z,8.52
2023-05-07T21:04:26.187Z,8.48
2023-05-07T21:06:54.396Z,8.42
2023-05-07T21:09:22.904Z,8.41
2023-05-07T21:11:51.219Z,8.43
2023-05-07T21:14:20.278Z,8.44
2023-05-07T21:16:49.713Z,8.38
2023-05-07T21:19:19.179Z,8.25
2023-05-07T21:21:47.665Z,8.12
2023-05-07T21:24:16.286Z,8.05
2023-05-07T21:26:44.744Z,8.02
2023-05-07T21:29:13.598Z,8.00
2023-05-07T21:31:42.465Z,7.98
2023-05-07T21:34:11.912Z,7.90
2023-05-07T21:36:40.514Z,7.81
2023-05-07T21:39:09.191Z,7.72
2023-05-07T21:41:37.998Z,7.69
2023-05-07T21:44:06.827Z,7.65
2023-05-07T21:46:35.575Z,7.64
2023-05-07T21:49:04.565Z,7.67
2023-05-07T21:51:35.033Z,7.70
2023-05-07T21:54:03.424Z,7.71
2023-05-07T21:56:31.481Z,7.65
2023-05-07T21:58:59.690Z,7.58
2023-05-07T22:01:28.127Z,7.53
2023-05-07T22:03:56.609Z,7.54
2023-05-07T22:06:25.638Z,7.51
2023-05-07T22:08:54.666Z,7.47
2023-05-07T22:11:23.285Z,7.43
2023-05-07T22:13:51.827Z,7.40
2023-05-07T22:16:20.477Z,7.37
2023-05-07T22:18:50.056Z,7.36
2023-05-07T22:21:18.692Z,7.34
2023-05-07T22:23:46.947Z,7.29
2023-05-07T22:26:15.506Z,7.23
2023-05-07T22:28:44.103Z,7.18
2023-05-07T22:31:12.609Z,7.23
2023-05-07T22:33:41.288Z,7.24
2023-05-07T22:36:09.546Z,7.17
2023-05-07T22:38:37.908Z,7.11
2023-05-07T22:41:06.358Z,7.07
2023-05-07T22:43:34.602Z,7.04
2023-05-07T22:46:03.367Z,7.00
2023-05-07T22:48:32.897Z,6.92
2023-05-07T22:51:01.218Z,6.82
2023-05-07T22:53:29.506Z,6.74
2023-05-07T22:55:57.996Z,6.71
2023-05-07T22:58:26.353Z,6.66
2023-05-07T23:00:54.853Z,6.59
2023-05-07T23:03:23.897Z,6.55
2023-05-07T23:05:55.888Z,6.48
2023-05-07T23:08:24.538Z,6.39
2023-05-07T23:10:53.039Z,6.35
2023-05-07T23:13:21.400Z,6.25
2023-05-07T23:15:51.071Z,6.19
2023-05-07T23:18:19.931Z,6.21
2023-05-07T23:20:48.748Z,6.23
2023-05-07T23:23:18.338Z,6.18
2023-05-07T23:25:47.464Z,6.14
2023-05-07T23:28:16.942Z,6.09
2023-05-07T23:30:46.528Z,6.07
2023-05-07T23:33:15.456Z,6.05
2023-05-07T23:35:47.070Z,6.04
2023-05-07T23:38:16.023Z,5.99
2023-05-07T23:40:44.889Z,5.92
2023-05-07T23:43:13.835Z,5.94
2023-05-07T23:45:42.996Z,5.95
2023-05-07T23:48:12.194Z,5.98
2023-05-07T23:50:41.033Z,6.06
2023-05-07T23:53:10.659Z,6.10
2023-05-07T23:55:39.546Z,6.09
2023-05-07T23:58:08.303Z,6.04
